sensor_id;sensor_type;location;lat;lon;timestamp;P1;durP1;ratioP1;P2;durP2;ratioP2
21810;SDS011;11067;48.788;9.208;2023-02-26T00:02:06;2.92;;;1.90;;
21810;SDS011;11067;48.788;9.208;2023-02-26T00:04:34;4.22;;;1.95;;
21810;SDS011;11067;48.788;9.208;2023-02-26T00:07:00;3.35;;;1.92;;
21810;SDS011;11067;48.788;9.208;2023-02-26T00:09:28;2.67;;;2.08;;
21810;SDS011;11067;48.788;9.208;2023-02-26T00:11:54;2.83;;;1.83;;
21810;SDS011;11067;48.788;9.208;2023-02-26T00:14:21;3.20;;;1.80;;
21810;SDS011;11067;48.788;9.208;2023-02-26T00:16:49;4.23;;;1.97;;
21810;SDS011;11067;48.788;9.208;2023-02-26T00:19:23;5.03;;;2.20;;
21810;SDS011;11067;48.788;9.208;2023-02-26T00:21:49;2.70;;;2.10;;
21810;SDS011;11067;48.788;9.208;2023-02-26T00:24:14;3.70;;;2.20;;
21810;SDS011;11067;48.788;9.208;2023-02-26T00:26:40;3.73;;;2.30;;
21810;SDS011;11067;48.788;9.208;2023-02-26T00:29:05;4.93;;;2.30;;
21810;SDS011;11067;48.788;9.208;2023-02-26T00:31:31;3.08;;;2.10;;
21810;SDS011;11067;48.788;9.208;2023-02-26T00:33:57;5.40;;;2.60;;
21810;SDS011;11067;48.788;9.208;2023-02-26T00:36:24;3.08;;;2.10;;
21810;SDS011;11067;48.788;9.208;2023-02-26T00:42:12;3.53;;;2.20;;
21810;SDS011;11067;48.788;9.208;2023-02-26T00:44:38;2.75;;;1.77;;
21810;SDS011;11067;48.788;9.208;2023-02-26T00:47:09;4.03;;;2.10;;
21810;SDS011;11067;48.788;9.208;2023-02-26T00:49:44;5.15;;;2.22;;
21810;SDS011;11067;48.788;9.208;2023-02-26T00:52:35;4.07;;;2.33;;
21810;SDS011;11067;48.788;9.208;2023-02-26T00:55:03;4.53;;;2.03;;
21810;SDS011;11067;48.788;9.208;2023-02-26T00:57:29;3.77;;;2.07;;
21810;SDS011;11067;48.788;9.208;2023-02-26T00:59:54;4.43;;;2.13;;
21810;SDS011;11067;48.788;9.208;2023-02-26T01:02:20;6.03;;;2.00;;
21810;SDS011;11067;48.788;9.208;2023-02-26T01:04:45;3.67;;;2.20;;
21810;SDS011;11067;48.788;9.208;2023-02-26T01:07:12;3.17;;;2.17;;
21810;SDS011;11067;48.788;9.208;2023-02-26T01:09:39;7.33;;;2.87;;
21810;SDS011;11067;48.788;9.208;2023-02-26T01:12:05;4.47;;;2.23;;
21810;SDS011;11067;48.788;9.208;2023-02-26T01:14:33;5.13;;;2.00;;
21810;SDS011;11067;48.788;9.208;2023-02-26T01:19:57;4.80;;;2.50;;
21810;SDS011;11067;48.788;9.208;2023-02-26T01:25:01;4.78;;;2.33;;
21810;SDS011;11067;48.788;9.208;2023-02-26T01:27:29;3.65;;;2.10;;
21810;SDS011;11067;48.788;9.208;2023-02-26T01:29:55;4.30;;;2.30;;
21810;SDS011;11067;48.788;9.208;2023-02-26T01:32:23;4.30;;;2.23;;
21810;SDS011;11067;48.788;9.208;2023-02-26T01:43:22;6.57;;;2.65;;
21810;SDS011;11067;48.788;9.208;2023-02-26T01:46:05;3.90;;;1.93;;
21810;SDS011;11067;48.788;9.208;2023-02-26T01:51:16;3.90;;;2.03;;
21810;SDS011;11067;48.788;9.208;2023-02-26T01:53:42;6.63;;;2.47;;
21810;SDS011;11067;48.788;9.208;2023-02-26T01:56:10;3.27;;;2.00;;
21810;SDS011;11067;48.788;9.208;2023-02-26T01:58:41;4.70;;;2.13;;
21810;SDS011;11067;48.788;9.208;2023-02-26T02:01:07;3.97;;;1.92;;
21810;SDS011;11067;48.788;9.208;2023-02-26T02:03:34;3.58;;;2.30;;
21810;SDS011;11067;48.788;9.208;2023-02-26T02:06:03;3.65;;;1.98;;
21810;SDS011;11067;48.788;9.208;2023-02-26T02:08:32;3.80;;;2.28;;
21810;SDS011;11067;48.788;9.208;2023-02-26T02:10:59;5.18;;;2.60;;
21810;SDS011;11067;48.788;9.208;2023-02-26T02:13:49;3.97;;;2.20;;
21810;SDS011;11067;48.788;9.208;2023-02-26T02:16:36;4.83;;;2.03;;
21810;SDS011;11067;48.788;9.208;2023-02-26T02:19:28;13.30;;;3.28;;
21810;SDS011;11067;48.788;9.208;2023-02-26T02:22:24;4.00;;;2.00;;
21810;SDS011;11067;48.788;9.208;2023-02-26T02:25:07;4.15;;;2.00;;
21810;SDS011;11067;48.788;9.208;2023-02-26T02:30:23;3.60;;;2.10;;
21810;SDS011;11067;48.788;9.208;2023-02-26T02:33:19;3.87;;;2.20;;
21810;SDS011;11067;48.788;9.208;2023-02-26T02:35:52;4.88;;;2.10;;
21810;SDS011;11067;48.788;9.208;2023-02-26T02:38:25;2.60;;;1.97;;
21810;SDS011;11067;48.788;9.208;2023-02-26T02:41:01;2.10;;;1.73;;
21810;SDS011;11067;48.788;9.208;2023-02-26T02:43:32;2.43;;;2.00;;
21810;SDS011;11067;48.788;9.208;2023-02-26T02:46:03;3.67;;;2.00;;
21810;SDS011;11067;48.788;9.208;2023-02-26T02:48:37;4.45;;;2.35;;
21810;SDS011;11067;48.788;9.208;2023-02-26T02:51:10;5.25;;;2.00;;
21810;SDS011;11067;48.788;9.208;2023-02-26T02:53:44;4.60;;;2.40;;
21810;SDS011;11067;48.788;9.208;2023-02-26T02:56:18;6.07;;;2.40;;
21810;SDS011;11067;48.788;9.208;2023-02-26T02:58:54;3.90;;;1.90;;
21810;SDS011;11067;48.788;9.208;2023-02-26T03:01:26;4.18;;;2.10;;
21810;SDS011;11067;48.788;9.208;2023-02-26T03:03:57;2.97;;;2.10;;
21810;SDS011;11067;48.788;9.208;2023-02-26T03:06:28;3.50;;;1.80;;
21810;SDS011;11067;48.788;9.208;2023-02-26T03:08:54;4.53;;;2.20;;
21810;SDS011;11067;48.788;9.208;2023-02-26T03:11:20;2.92;;;1.90;;
21810;SDS011;11067;48.788;9.208;2023-02-26T03:13:46;4.00;;;1.88;;
21810;SDS011;11067;48.788;9.208;2023-02-26T03:22:16;3.20;;;2.03;;
21810;SDS011;11067;48.788;9.208;2023-02-26T03:24:39;2.83;;;2.17;;
21810;SDS011;11067;48.788;9.208;2023-02-26T03:27:26;3.30;;;2.40;;
21810;SDS011;11067;48.788;9.208;2023-02-26T03:30:04;4.10;;;1.98;;
21810;SDS011;11067;48.788;9.208;2023-02-26T03:35:25;3.17;;;2.22;;
21810;SDS011;11067;48.788;9.208;2023-02-26T03:38:13;4.43;;;2.17;;
21810;SDS011;11067;48.788;9.208;2023-02-26T03:40:46;2.70;;;2.20;;
21810;SDS011;11067;48.788;9.208;2023-02-26T03:43:20;2.70;;;2.00;;
21810;SDS011;11067;48.788;9.208;2023-02-26T03:45:51;5.15;;;2.00;;
21810;SDS011;11067;48.788;9.208;2023-02-26T03:48:22;6.30;;;2.25;;
21810;SDS011;11067;48.788;9.208;2023-02-26T03:50:52;3.30;;;1.90;;
21810;SDS011;11067;48.788;9.208;2023-02-26T03:53:22;4.05;;;2.22;;
21810;SDS011;11067;48.788;9.208;2023-02-26T03:55:55;5.18;;;2.60;;
21810;SDS011;11067;48.788;9.208;2023-02-26T03:58:42;3.40;;;2.20;;
21810;SDS011;11067;48.788;9.208;2023-02-26T04:04:08;4.50;;;2.42;;
21810;SDS011;11067;48.788;9.208;2023-02-26T04:06:55;5.07;;;2.33;;
21810;SDS011;11067;48.788;9.208;2023-02-26T04:09:21;3.20;;;2.13;;
21810;SDS011;11067;48.788;9.208;2023-02-26T04:11:47;4.60;;;2.60;;
21810;SDS011;11067;48.788;9.208;2023-02-26T04:14:15;4.47;;;2.60;;
21810;SDS011;11067;48.788;9.208;2023-02-26T04:16:41;5.00;;;2.60;;
21810;SDS011;11067;48.788;9.208;2023-02-26T04:19:08;4.57;;;2.67;;
21810;SDS011;11067;48.788;9.208;2023-02-26T04:21:34;4.88;;;2.35;;
21810;SDS011;11067;48.788;9.208;2023-02-26T04:24:00;4.85;;;2.38;;
21810;SDS011;11067;48.788;9.208;2023-02-26T04:26:26;4.60;;;2.10;;
21810;SDS011;11067;48.788;9.208;2023-02-26T04:28:51;5.70;;;2.50;;
21810;SDS011;11067;48.788;9.208;2023-02-26T04:31:17;5.28;;;2.28;;
21810;SDS011;11067;48.788;9.208;2023-02-26T04:33:42;6.35;;;2.20;;
21810;SDS011;11067;48.788;9.208;2023-02-26T04:36:08;6.68;;;2.90;;
21810;SDS011;11067;48.788;9.208;2023-02-26T04:38:34;4.40;;;2.20;;
21810;SDS011;11067;48.788;9.208;2023-02-26T04:41:00;5.88;;;2.63;;
21810;SDS011;11067;48.788;9.208;2023-02-26T04:43:26;6.03;;;2.53;;
21810;SDS011;11067;48.788;9.208;2023-02-26T04:45:52;4.03;;;2.22;;
21810;SDS011;11067;48.788;9.208;2023-02-26T04:48:17;4.57;;;2.30;;
21810;SDS011;11067;48.788;9.208;2023-02-26T04:50:44;3.47;;;2.20;;
21810;SDS011;11067;48.788;9.208;2023-02-26T04:53:10;4.95;;;2.30;;
21810;SDS011;11067;48.788;9.208;2023-02-26T04:55:35;4.03;;;2.47;;
21810;SDS011;11067;48.788;9.208;2023-02-26T04:58:02;3.10;;;2.30;;
21810;SDS011;11067;48.788;9.208;2023-02-26T05:00:27;3.60;;;2.00;;
21810;SDS011;11067;48.788;9.208;2023-02-26T05:02:53;4.50;;;2.30;;
21810;SDS011;11067;48.788;9.208;2023-02-26T05:05:19;3.77;;;2.70;;
21810;SDS011;11067;48.788;9.208;2023-02-26T05:07:44;5.03;;;2.40;;
21810;SDS011;11067;48.788;9.208;2023-02-26T05:10:10;4.10;;;2.10;;
21810;SDS011;11067;48.788;9.208;2023-02-26T05:12:36;5.15;;;2.22;;
21810;SDS011;11067;48.788;9.208;2023-02-26T05:15:01;4.03;;;2.42;;
21810;SDS011;11067;48.788;9.208;2023-02-26T05:17:27;4.55;;;2.47;;
21810;SDS011;11067;48.788;9.208;2023-02-26T05:19:53;3.57;;;2.33;;
21810;SDS011;11067;48.788;9.208;2023-02-26T05:22:18;7.13;;;2.40;;
21810;SDS011;11067;48.788;9.208;2023-02-26T05:24:44;3.60;;;2.33;;
21810;SDS011;11067;48.788;9.208;2023-02-26T05:27:10;4.30;;;2.33;;
21810;SDS011;11067;48.788;9.208;2023-02-26T05:29:35;6.03;;;2.47;;
21810;SDS011;11067;48.788;9.208;2023-02-26T05:32:01;5.37;;;2.17;;
21810;SDS011;11067;48.788;9.208;2023-02-26T05:34:27;4.32;;;2.30;;
21810;SDS011;11067;48.788;9.208;2023-02-26T05:36:52;5.63;;;2.63;;
21810;SDS011;11067;48.788;9.208;2023-02-26T05:39:18;3.33;;;2.40;;
21810;SDS011;11067;48.788;9.208;2023-02-26T05:41:43;3.17;;;2.50;;
21810;SDS011;11067;48.788;9.208;2023-02-26T05:44:10;3.78;;;2.05;;
21810;SDS011;11067;48.788;9.208;2023-02-26T05:46:36;5.23;;;2.27;;
21810;SDS011;11067;48.788;9.208;2023-02-26T05:49:01;4.03;;;2.30;;
21810;SDS011;11067;48.788;9.208;2023-02-26T05:51:27;2.93;;;1.83;;
21810;SDS011;11067;48.788;9.208;2023-02-26T05:53:53;3.83;;;2.08;;
21810;SDS011;11067;48.788;9.208;2023-02-26T05:56:18;6.18;;;2.50;;
21810;SDS011;11067;48.788;9.208;2023-02-26T05:58:44;5.22;;;2.00;;
21810;SDS011;11067;48.788;9.208;2023-02-26T06:01:10;8.23;;;2.53;;
21810;SDS011;11067;48.788;9.208;2023-02-26T06:03:35;5.40;;;2.25;;
21810;SDS011;11067;48.788;9.208;2023-02-26T06:06:01;5.22;;;2.47;;
21810;SDS011;11067;48.788;9.208;2023-02-26T06:08:26;5.00;;;2.67;;
21810;SDS011;11067;48.788;9.208;2023-02-26T06:10:52;5.75;;;2.47;;
21810;SDS011;11067;48.788;9.208;2023-02-26T06:13:18;4.43;;;2.15;;
21810;SDS011;11067;48.788;9.208;2023-02-26T06:15:44;3.90;;;2.10;;
21810;SDS011;11067;48.788;9.208;2023-02-26T06:18:09;3.20;;;2.20;;
21810;SDS011;11067;48.788;9.208;2023-02-26T06:20:35;3.90;;;2.22;;
21810;SDS011;11067;48.788;9.208;2023-02-26T06:23:01;3.15;;;2.20;;
21810;SDS011;11067;48.788;9.208;2023-02-26T06:25:26;5.20;;;2.40;;
21810;SDS011;11067;48.788;9.208;2023-02-26T06:27:52;3.77;;;2.10;;
21810;SDS011;11067;48.788;9.208;2023-02-26T06:30:17;3.87;;;2.30;;
21810;SDS011;11067;48.788;9.208;2023-02-26T06:32:43;3.20;;;2.23;;
21810;SDS011;11067;48.788;9.208;2023-02-26T06:35:09;2.70;;;2.20;;
21810;SDS011;11067;48.788;9.208;2023-02-26T06:37:34;3.10;;;2.10;;
21810;SDS011;11067;48.788;9.208;2023-02-26T06:40:00;3.83;;;2.60;;
21810;SDS011;11067;48.788;9.208;2023-02-26T06:42:25;4.60;;;2.47;;
21810;SDS011;11067;48.788;9.208;2023-02-26T06:44:51;4.70;;;2.50;;
21810;SDS011;11067;48.788;9.208;2023-02-26T06:47:16;4.07;;;2.38;;
21810;SDS011;11067;48.788;9.208;2023-02-26T06:49:42;4.40;;;2.60;;
21810;SDS011;11067;48.788;9.208;2023-02-26T06:52:08;4.72;;;2.63;;
21810;SDS011;11067;48.788;9.208;2023-02-26T06:54:33;3.38;;;2.22;;
21810;SDS011;11067;48.788;9.208;2023-02-26T06:56:59;3.45;;;2.40;;
21810;SDS011;11067;48.788;9.208;2023-02-26T06:59:26;4.28;;;2.22;;
21810;SDS011;11067;48.788;9.208;2023-02-26T07:01:52;4.93;;;2.00;;
21810;SDS011;11067;48.788;9.208;2023-02-26T07:04:18;5.67;;;2.70;;
21810;SDS011;11067;48.788;9.208;2023-02-26T07:06:43;6.03;;;2.57;;
21810;SDS011;11067;48.788;9.208;2023-02-26T07:09:09;4.33;;;2.47;;
21810;SDS011;11067;48.788;9.208;2023-02-26T07:11:35;6.60;;;2.50;;
21810;SDS011;11067;48.788;9.208;2023-02-26T07:14:00;4.23;;;2.43;;
21810;SDS011;11067;48.788;9.208;2023-02-26T07:16:26;5.27;;;2.37;;
21810;SDS011;11067;48.788;9.208;2023-02-26T07:18:51;4.63;;;2.37;;
21810;SDS011;11067;48.788;9.208;2023-02-26T07:21:17;4.10;;;2.07;;
21810;SDS011;11067;48.788;9.208;2023-02-26T07:23:42;5.57;;;2.27;;
21810;SDS011;11067;48.788;9.208;2023-02-26T07:26:08;2.77;;;2.10;;
21810;SDS011;11067;48.788;9.208;2023-02-26T07:28:33;4.50;;;2.60;;
21810;SDS011;11067;48.788;9.208;2023-02-26T07:30:59;5.13;;;2.47;;
21810;SDS011;11067;48.788;9.208;2023-02-26T07:33:24;4.33;;;2.13;;
21810;SDS011;11067;48.788;9.208;2023-02-26T07:35:52;4.43;;;1.83;;
21810;SDS011;11067;48.788;9.208;2023-02-26T07:38:18;5.30;;;2.00;;
21810;SDS011;11067;48.788;9.208;2023-02-26T07:40:43;4.60;;;2.03;;
21810;SDS011;11067;48.788;9.208;2023-02-26T07:43:09;2.92;;;2.25;;
21810;SDS011;11067;48.788;9.208;2023-02-26T07:45:34;3.40;;;2.20;;
21810;SDS011;11067;48.788;9.208;2023-02-26T07:48:00;4.13;;;2.30;;
21810;SDS011;11067;48.788;9.208;2023-02-26T07:50:26;4.50;;;2.00;;
21810;SDS011;11067;48.788;9.208;2023-02-26T07:52:51;4.07;;;2.23;;
21810;SDS011;11067;48.788;9.208;2023-02-26T07:55:17;2.92;;;2.10;;
21810;SDS011;11067;48.788;9.208;2023-02-26T07:57:43;4.07;;;2.23;;
21810;SDS011;11067;48.788;9.208;2023-02-26T08:00:10;3.92;;;1.85;;
21810;SDS011;11067;48.788;9.208;2023-02-26T08:02:35;11.53;;;2.30;;
21810;SDS011;11067;48.788;9.208;2023-02-26T08:05:01;4.60;;;1.97;;
21810;SDS011;11067;48.788;9.208;2023-02-26T08:07:27;6.00;;;2.20;;
21810;SDS011;11067;48.788;9.208;2023-02-26T08:09:52;4.87;;;2.20;;
21810;SDS011;11067;48.788;9.208;2023-02-26T08:12:18;3.87;;;2.30;;
21810;SDS011;11067;48.788;9.208;2023-02-26T08:14:43;3.80;;;2.03;;
21810;SDS011;11067;48.788;9.208;2023-02-26T08:17:09;6.20;;;2.58;;
21810;SDS011;11067;48.788;9.208;2023-02-26T08:19:35;4.88;;;2.60;;
21810;SDS011;11067;48.788;9.208;2023-02-26T08:22:01;4.40;;;2.00;;
21810;SDS011;11067;48.788;9.208;2023-02-26T08:24:26;4.20;;;2.13;;
21810;SDS011;11067;48.788;9.208;2023-02-26T08:26:52;6.13;;;2.30;;
21810;SDS011;11067;48.788;9.208;2023-02-26T08:29:18;6.37;;;2.10;;
21810;SDS011;11067;48.788;9.208;2023-02-26T08:31:44;3.55;;;1.58;;
21810;SDS011;11067;48.788;9.208;2023-02-26T08:34:09;2.85;;;1.92;;
21810;SDS011;11067;48.788;9.208;2023-02-26T08:36:35;3.85;;;1.85;;
21810;SDS011;11067;48.788;9.208;2023-02-26T08:39:01;6.38;;;2.00;;
21810;SDS011;11067;48.788;9.208;2023-02-26T08:41:26;5.60;;;2.00;;
21810;SDS011;11067;48.788;9.208;2023-02-26T08:43:54;4.30;;;2.20;;
21810;SDS011;11067;48.788;9.208;2023-02-26T08:46:19;2.70;;;1.83;;
21810;SDS011;11067;48.788;9.208;2023-02-26T08:48:45;4.93;;;1.90;;
21810;SDS011;11067;48.788;9.208;2023-02-26T08:51:11;2.83;;;2.00;;
21810;SDS011;11067;48.788;9.208;2023-02-26T08:53:36;3.25;;;1.83;;
21810;SDS011;11067;48.788;9.208;2023-02-26T08:56:03;3.35;;;1.40;;
21810;SDS011;11067;48.788;9.208;2023-02-26T08:58:29;4.00;;;2.07;;
21810;SDS011;11067;48.788;9.208;2023-02-26T09:00:55;3.90;;;1.70;;
21810;SDS011;11067;48.788;9.208;2023-02-26T09:03:20;3.20;;;2.10;;
21810;SDS011;11067;48.788;9.208;2023-02-26T09:05:46;6.43;;;1.77;;
21810;SDS011;11067;48.788;9.208;2023-02-26T09:08:11;2.80;;;1.60;;
21810;SDS011;11067;48.788;9.208;2023-02-26T09:10:39;2.17;;;1.87;;
21810;SDS011;11067;48.788;9.208;2023-02-26T09:13:04;4.30;;;1.57;;
21810;SDS011;11067;48.788;9.208;2023-02-26T09:15:30;3.87;;;1.83;;
21810;SDS011;11067;48.788;9.208;2023-02-26T09:17:55;2.93;;;1.73;;
21810;SDS011;11067;48.788;9.208;2023-02-26T09:20:21;4.10;;;1.70;;
21810;SDS011;11067;48.788;9.208;2023-02-26T09:22:47;2.58;;;1.52;;
21810;SDS011;11067;48.788;9.208;2023-02-26T09:25:12;2.13;;;1.70;;
21810;SDS011;11067;48.788;9.208;2023-02-26T09:27:39;3.10;;;1.80;;
21810;SDS011;11067;48.788;9.208;2023-02-26T09:30:05;3.30;;;1.30;;
21810;SDS011;11067;48.788;9.208;2023-02-26T09:32:31;1.85;;;1.27;;
21810;SDS011;11067;48.788;9.208;2023-02-26T09:34:56;1.97;;;1.37;;
21810;SDS011;11067;48.788;9.208;2023-02-26T09:37:22;2.80;;;1.40;;
21810;SDS011;11067;48.788;9.208;2023-02-26T09:39:48;4.22;;;1.52;;
21810;SDS011;11067;48.788;9.208;2023-02-26T09:42:33;3.03;;;1.30;;
21810;SDS011;11067;48.788;9.208;2023-02-26T09:45:46;1.75;;;1.25;;
21810;SDS011;11067;48.788;9.208;2023-02-26T09:48:06;2.10;;;1.20;;
21810;SDS011;11067;48.788;9.208;2023-02-26T09:50:40;3.20;;;1.20;;
21810;SDS011;11067;48.788;9.208;2023-02-26T09:53:25;2.93;;;1.60;;
21810;SDS011;11067;48.788;9.208;2023-02-26T09:56:10;7.55;;;1.80;;
21810;SDS011;11067;48.788;9.208;2023-02-26T09:58:41;2.67;;;1.67;;
21810;SDS011;11067;48.788;9.208;2023-02-26T10:01:13;2.33;;;1.70;;
21810;SDS011;11067;48.788;9.208;2023-02-26T10:06:31;3.33;;;1.47;;
21810;SDS011;11067;48.788;9.208;2023-02-26T10:12:25;1.58;;;1.35;;
21810;SDS011;11067;48.788;9.208;2023-02-26T10:14:48;2.35;;;1.50;;
21810;SDS011;11067;48.788;9.208;2023-02-26T10:20:24;3.40;;;1.47;;
21810;SDS011;11067;48.788;9.208;2023-02-26T10:25:55;2.87;;;1.50;;
21810;SDS011;11067;48.788;9.208;2023-02-26T10:28:33;1.65;;;1.33;;
21810;SDS011;11067;48.788;9.208;2023-02-26T10:34:00;1.85;;;1.50;;
21810;SDS011;11067;48.788;9.208;2023-02-26T10:36:56;2.20;;;1.40;;
21810;SDS011;11067;48.788;9.208;2023-02-26T10:39:49;2.03;;;1.48;;
21810;SDS011;11067;48.788;9.208;2023-02-26T10:42:43;2.38;;;1.65;;
21810;SDS011;11067;48.788;9.208;2023-02-26T10:50:58;3.00;;;1.60;;
21810;SDS011;11067;48.788;9.208;2023-02-26T10:53:29;2.83;;;1.80;;
21810;SDS011;11067;48.788;9.208;2023-02-26T10:56:03;2.13;;;1.60;;
21810;SDS011;11067;48.788;9.208;2023-02-26T10:58:35;2.80;;;1.40;;
21810;SDS011;11067;48.788;9.208;2023-02-26T11:01:01;2.67;;;1.60;;
21810;SDS011;11067;48.788;9.208;2023-02-26T11:03:38;1.93;;;1.40;;
21810;SDS011;11067;48.788;9.208;2023-02-26T11:06:06;1.95;;;1.50;;
21810;SDS011;11067;48.788;9.208;2023-02-26T11:08:34;3.63;;;1.50;;
21810;SDS011;11067;48.788;9.208;2023-02-26T11:11:04;3.88;;;1.95;;
21810;SDS011;11067;48.788;9.208;2023-02-26T11:13:31;3.50;;;1.80;;
21810;SDS011;11067;48.788;9.208;2023-02-26T11:16:16;1.70;;;1.30;;
21810;SDS011;11067;48.788;9.208;2023-02-26T11:18:43;1.90;;;1.50;;
21810;SDS011;11067;48.788;9.208;2023-02-26T11:21:17;2.47;;;1.52;;
21810;SDS011;11067;48.788;9.208;2023-02-26T11:23:46;2.70;;;1.50;;
21810;SDS011;11067;48.788;9.208;2023-02-26T11:26:17;2.33;;;1.30;;
21810;SDS011;11067;48.788;9.208;2023-02-26T11:28:45;1.77;;;1.50;;
21810;SDS011;11067;48.788;9.208;2023-02-26T11:31:14;3.28;;;1.58;;
21810;SDS011;11067;48.788;9.208;2023-02-26T11:33:48;2.08;;;1.30;;
21810;SDS011;11067;48.788;9.208;2023-02-26T11:36:19;1.45;;;1.20;;
21810;SDS011;11067;48.788;9.208;2023-02-26T11:38:51;2.30;;;1.38;;
21810;SDS011;11067;48.788;9.208;2023-02-26T11:41:21;2.40;;;1.42;;
21810;SDS011;11067;48.788;9.208;2023-02-26T11:45:28;2.45;;;1.38;;
21810;SDS011;11067;48.788;9.208;2023-02-26T11:47:59;1.40;;;1.23;;
21810;SDS011;11067;48.788;9.208;2023-02-26T11:50:31;2.28;;;1.45;;
21810;SDS011;11067;48.788;9.208;2023-02-26T11:53:04;1.45;;;1.35;;
21810;SDS011;11067;48.788;9.208;2023-02-26T11:55:34;2.28;;;1.20;;
21810;SDS011;11067;48.788;9.208;2023-02-26T11:58:03;2.40;;;1.27;;
21810;SDS011;11067;48.788;9.208;2023-02-26T12:00:40;2.13;;;1.30;;
21810;SDS011;11067;48.788;9.208;2023-02-26T12:03:09;2.08;;;1.23;;
21810;SDS011;11067;48.788;9.208;2023-02-26T12:05:44;2.08;;;1.42;;
21810;SDS011;11067;48.788;9.208;2023-02-26T12:08:14;3.88;;;1.55;;
21810;SDS011;11067;48.788;9.208;2023-02-26T12:16:06;1.53;;;1.30;;
21810;SDS011;11067;48.788;9.208;2023-02-26T12:18:50;2.60;;;1.30;;
21810;SDS011;11067;48.788;9.208;2023-02-26T12:21:46;2.72;;;1.42;;
21810;SDS011;11067;48.788;9.208;2023-02-26T12:24:44;5.70;;;1.55;;
21810;SDS011;11067;48.788;9.208;2023-02-26T12:33:02;1.40;;;1.27;;
21810;SDS011;11067;48.788;9.208;2023-02-26T12:35:41;2.95;;;1.20;;
21810;SDS011;11067;48.788;9.208;2023-02-26T12:38:24;1.42;;;1.30;;
21810;SDS011;11067;48.788;9.208;2023-02-26T12:41:09;2.75;;;1.20;;
21810;SDS011;11067;48.788;9.208;2023-02-26T12:43:51;1.73;;;1.40;;
21810;SDS011;11067;48.788;9.208;2023-02-26T12:48:59;2.25;;;1.40;;
21810;SDS011;11067;48.788;9.208;2023-02-26T12:51:33;1.52;;;1.38;;
21810;SDS011;11067;48.788;9.208;2023-02-26T12:57:32;1.53;;;1.40;;
21810;SDS011;11067;48.788;9.208;2023-02-26T13:05:52;2.70;;;1.30;;
21810;SDS011;11067;48.788;9.208;2023-02-26T13:19:49;1.75;;;1.08;;
21810;SDS011;11067;48.788;9.208;2023-02-26T13:22:20;1.48;;;1.30;;
21810;SDS011;11067;48.788;9.208;2023-02-26T13:27:21;1.83;;;1.27;;
21810;SDS011;11067;48.788;9.208;2023-02-26T13:29:52;1.88;;;1.10;;
21810;SDS011;11067;48.788;9.208;2023-02-26T13:32:27;3.45;;;0.95;;
21810;SDS011;11067;48.788;9.208;2023-02-26T13:34:54;2.25;;;1.13;;
21810;SDS011;11067;48.788;9.208;2023-02-26T13:37:28;1.73;;;1.00;;
21810;SDS011;11067;48.788;9.208;2023-02-26T13:42:59;1.10;;;1.00;;
21810;SDS011;11067;48.788;9.208;2023-02-26T13:48:39;2.15;;;0.90;;
21810;SDS011;11067;48.788;9.208;2023-02-26T13:51:41;1.52;;;1.10;;
21810;SDS011;11067;48.788;9.208;2023-02-26T13:56:42;1.25;;;1.00;;
21810;SDS011;11067;48.788;9.208;2023-02-26T14:06:47;1.80;;;1.27;;
21810;SDS011;11067;48.788;9.208;2023-02-26T14:17:35;2.20;;;1.25;;
21810;SDS011;11067;48.788;9.208;2023-02-26T14:22:20;2.10;;;1.10;;
21810;SDS011;11067;48.788;9.208;2023-02-26T14:24:56;2.15;;;1.13;;
21810;SDS011;11067;48.788;9.208;2023-02-26T14:32:34;1.73;;;1.40;;
21810;SDS011;11067;48.788;9.208;2023-02-26T14:35:22;3.47;;;1.50;;
21810;SDS011;11067;48.788;9.208;2023-02-26T14:38:06;1.77;;;1.05;;
21810;SDS011;11067;48.788;9.208;2023-02-26T14:40:42;1.15;;;0.98;;
21810;SDS011;11067;48.788;9.208;2023-02-26T14:43:18;1.40;;;0.75;;
21810;SDS011;11067;48.788;9.208;2023-02-26T14:46:05;1.30;;;1.00;;
21810;SDS011;11067;48.788;9.208;2023-02-26T14:48:32;1.40;;;1.20;;
21810;SDS011;11067;48.788;9.208;2023-02-26T14:59:32;1.08;;;0.93;;
21810;SDS011;11067;48.788;9.208;2023-02-26T15:10:34;1.40;;;0.90;;
21810;SDS011;11067;48.788;9.208;2023-02-26T15:13:20;1.83;;;0.90;;
21810;SDS011;11067;48.788;9.208;2023-02-26T15:15:58;1.10;;;0.90;;
21810;SDS011;11067;48.788;9.208;2023-02-26T15:24:04;1.15;;;1.00;;
21810;SDS011;11067;48.788;9.208;2023-02-26T15:26:35;1.08;;;0.98;;
21810;SDS011;11067;48.788;9.208;2023-02-26T15:29:08;1.23;;;0.93;;
21810;SDS011;11067;48.788;9.208;2023-02-26T15:31:45;1.50;;;1.10;;
21810;SDS011;11067;48.788;9.208;2023-02-26T15:34:16;2.60;;;1.05;;
21810;SDS011;11067;48.788;9.208;2023-02-26T15:36:45;2.20;;;1.33;;
21810;SDS011;11067;48.788;9.208;2023-02-26T15:39:15;4.87;;;1.20;;
21810;SDS011;11067;48.788;9.208;2023-02-26T15:41:41;2.20;;;1.40;;
21810;SDS011;11067;48.788;9.208;2023-02-26T15:44:09;2.63;;;1.17;;
21810;SDS011;11067;48.788;9.208;2023-02-26T15:46:41;2.42;;;1.05;;
21810;SDS011;11067;48.788;9.208;2023-02-26T15:49:16;1.25;;;0.90;;
21810;SDS011;11067;48.788;9.208;2023-02-26T15:51:49;1.30;;;0.90;;
21810;SDS011;11067;48.788;9.208;2023-02-26T15:54:17;2.17;;;1.23;;
21810;SDS011;11067;48.788;9.208;2023-02-26T15:56:45;1.60;;;1.13;;
21810;SDS011;11067;48.788;9.208;2023-02-26T15:59:15;1.55;;;0.90;;
21810;SDS011;11067;48.788;9.208;2023-02-26T16:01:43;7.30;;;1.33;;
21810;SDS011;11067;48.788;9.208;2023-02-26T16:04:13;1.70;;;0.88;;
21810;SDS011;11067;48.788;9.208;2023-02-26T16:06:45;1.67;;;0.88;;
21810;SDS011;11067;48.788;9.208;2023-02-26T16:09:17;1.80;;;1.00;;
21810;SDS011;11067;48.788;9.208;2023-02-26T16:11:44;4.07;;;1.35;;
21810;SDS011;11067;48.788;9.208;2023-02-26T16:14:16;1.40;;;1.23;;
21810;SDS011;11067;48.788;9.208;2023-02-26T16:16:50;2.45;;;0.90;;
21810;SDS011;11067;48.788;9.208;2023-02-26T16:19:18;1.52;;;0.90;;
21810;SDS011;11067;48.788;9.208;2023-02-26T16:21:48;2.50;;;0.80;;
21810;SDS011;11067;48.788;9.208;2023-02-26T16:24:18;2.80;;;1.20;;
21810;SDS011;11067;48.788;9.208;2023-02-26T16:26:51;3.30;;;1.20;;
21810;SDS011;11067;48.788;9.208;2023-02-26T16:29:21;2.27;;;1.27;;
21810;SDS011;11067;48.788;9.208;2023-02-26T16:31:51;1.30;;;0.90;;
21810;SDS011;11067;48.788;9.208;2023-02-26T16:34:22;0.93;;;0.73;;
21810;SDS011;11067;48.788;9.208;2023-02-26T16:37:30;1.50;;;0.90;;
21810;SDS011;11067;48.788;9.208;2023-02-26T16:47:44;1.80;;;0.80;;
21810;SDS011;11067;48.788;9.208;2023-02-26T16:50:16;2.00;;;0.85;;
21810;SDS011;11067;48.788;9.208;2023-02-26T16:52:51;1.15;;;0.80;;
21810;SDS011;11067;48.788;9.208;2023-02-26T16:55:24;2.13;;;0.98;;
21810;SDS011;11067;48.788;9.208;2023-02-26T16:57:54;4.78;;;1.17;;
21810;SDS011;11067;48.788;9.208;2023-02-26T17:00:22;2.27;;;1.20;;
21810;SDS011;11067;48.788;9.208;2023-02-26T17:02:55;3.90;;;1.03;;
21810;SDS011;11067;48.788;9.208;2023-02-26T17:05:24;1.10;;;1.00;;
21810;SDS011;11067;48.788;9.208;2023-02-26T17:07:54;3.15;;;1.17;;
21810;SDS011;11067;48.788;9.208;2023-02-26T17:10:54;1.83;;;1.08;;
21810;SDS011;11067;48.788;9.208;2023-02-26T17:13:29;1.92;;;1.13;;
21810;SDS011;11067;48.788;9.208;2023-02-26T17:15:57;3.17;;;1.30;;
21810;SDS011;11067;48.788;9.208;2023-02-26T17:18:25;2.17;;;0.90;;
21810;SDS011;11067;48.788;9.208;2023-02-26T17:20:51;1.33;;;0.90;;
21810;SDS011;11067;48.788;9.208;2023-02-26T17:23:17;1.25;;;1.00;;
21810;SDS011;11067;48.788;9.208;2023-02-26T17:25:47;1.70;;;0.90;;
21810;SDS011;11067;48.788;9.208;2023-02-26T17:28:18;1.13;;;0.90;;
21810;SDS011;11067;48.788;9.208;2023-02-26T17:30:46;1.92;;;1.23;;
21810;SDS011;11067;48.788;9.208;2023-02-26T17:33:12;2.03;;;1.00;;
21810;SDS011;11067;48.788;9.208;2023-02-26T17:35:38;1.17;;;0.93;;
21810;SDS011;11067;48.788;9.208;2023-02-26T17:38:05;3.40;;;1.50;;
21810;SDS011;11067;48.788;9.208;2023-02-26T17:40:34;2.85;;;1.30;;
21810;SDS011;11067;48.788;9.208;2023-02-26T17:43:03;4.07;;;1.67;;